sensor_id;sensor_type;location;lat;lon;timestamp;temperature;humidity
78647;DHT22;67961;43.460;3.762;2023-04-24T00:00:12;12.70;79.20
78647;DHT22;67961;43.460;3.762;2023-04-24T00:02:40;12.70;79.20
78647;DHT22;67961;43.460;3.762;2023-04-24T00:05:07;12.70;79.00
78647;DHT22;67961;43.460;3.762;2023-04-24T00:07:33;12.60;78.90
78647;DHT22;67961;43.460;3.762;2023-04-24T00:09:59;12.50;78.70
78647;DHT22;67961;43.460;3.762;2023-04-24T00:12:25;12.50;78.90
78647;DHT22;67961;43.460;3.762;2023-04-24T00:14:52;12.50;78.90
78647;DHT22;67961;43.460;3.762;2023-04-24T00:17:18;12.50;78.70
78647;DHT22;67961;43.460;3.762;2023-04-24T00:19:45;12.50;78.40
78647;DHT22;67961;43.460;3.762;2023-04-24T00:22:11;12.50;78.20
78647;DHT22;67961;43.460;3.762;2023-04-24T00:24:41;12.50;77.80
78647;DHT22;67961;43.460;3.762;2023-04-24T00:27:07;12.50;77.50
78647;DHT22;67961;43.460;3.762;2023-04-24T00:29:33;12.50;77.00
78647;DHT22;67961;43.460;3.762;2023-04-24T00:31:58;12.50;76.40
78647;DHT22;67961;43.460;3.762;2023-04-24T00:34:24;12.50;76.30
78647;DHT22;67961;43.460;3.762;2023-04-24T00:36:49;12.50;74.50
78647;DHT22;67961;43.460;3.762;2023-04-24T00:39:18;12.70;74.40
78647;DHT22;67961;43.460;3.762;2023-04-24T00:41:45;12.80;73.60
78647;DHT22;67961;43.460;3.762;2023-04-24T00:44:11;12.90;72.80
78647;DHT22;67961;43.460;3.762;2023-04-24T00:46:37;12.90;72.90
78647;DHT22;67961;43.460;3.762;2023-04-24T00:49:03;13.00;71.40
78647;DHT22;67961;43.460;3.762;2023-04-24T00:51:29;13.10;70.90
78647;DHT22;67961;43.460;3.762;2023-04-24T00:53:56;13.10;71.30
78647;DHT22;67961;43.460;3.762;2023-04-24T00:56:22;13.00;71.60
78647;DHT22;67961;43.460;3.762;2023-04-24T00:58:49;13.00;71.50
78647;DHT22;67961;43.460;3.762;2023-04-24T01:01:15;13.00;71.90
78647;DHT22;67961;43.460;3.762;2023-04-24T01:03:40;13.00;71.60
78647;DHT22;67961;43.460;3.762;2023-04-24T01:06:06;13.00;72.00
78647;DHT22;67961;43.460;3.762;2023-04-24T01:08:33;12.90;72.40
78647;DHT22;67961;43.460;3.762;2023-04-24T01:11:02;12.90;72.80
78647;DHT22;67961;43.460;3.762;2023-04-24T01:13:29;12.80;72.70
78647;DHT22;67961;43.460;3.762;2023-04-24T01:15:55;12.80;72.20
78647;DHT22;67961;43.460;3.762;2023-04-24T01:18:20;12.80;72.40
78647;DHT22;67961;43.460;3.762;2023-04-24T01:20:48;12.80;72.30
78647;DHT22;67961;43.460;3.762;2023-04-24T01:23:15;12.80;72.00
78647;DHT22;67961;43.460;3.762;2023-04-24T01:25:41;12.80;72.40
78647;DHT22;67961;43.460;3.762;2023-04-24T01:28:07;12.70;72.90
78647;DHT22;67961;43.460;3.762;2023-04-24T01:30:33;12.60;73.20
78647;DHT22;67961;43.460;3.762;2023-04-24T01:32:59;12.60;73.60
78647;DHT22;67961;43.460;3.762;2023-04-24T01:35:25;12.50;73.40
78647;DHT22;67961;43.460;3.762;2023-04-24T01:37:51;12.50;73.30
78647;DHT22;67961;43.460;3.762;2023-04-24T01:40:16;12.60;73.00
78647;DHT22;67961;43.460;3.762;2023-04-24T01:42:42;12.60;73.30
78647;DHT22;67961;43.460;3.762;2023-04-24T01:45:10;12.60;73.20
78647;DHT22;67961;43.460;3.762;2023-04-24T01:47:36;12.50;72.30
78647;DHT22;67961;43.460;3.762;2023-04-24T01:50:04;12.50;72.80
78647;DHT22;67961;43.460;3.762;2023-04-24T01:52:30;12.50;73.00
78647;DHT22;67961;43.460;3.762;2023-04-24T01:54:59;12.50;72.80
78647;DHT22;67961;43.460;3.762;2023-04-24T01:57:26;12.50;71.50
78647;DHT22;67961;43.460;3.762;2023-04-24T01:59:51;12.60;71.20
78647;DHT22;67961;43.460;3.762;2023-04-24T02:02:17;12.70;70.30
78647;DHT22;67961;43.460;3.762;2023-04-24T02:04:43;12.70;71.30
78647;DHT22;67961;43.460;3.762;2023-04-24T02:07:12;12.70;70.90
78647;DHT22;67961;43.460;3.762;2023-04-24T02:09:37;12.70;71.00
78647;DHT22;67961;43.460;3.762;2023-04-24T02:12:03;12.80;70.40
78647;DHT22;67961;43.460;3.762;2023-04-24T02:14:29;12.80;70.90
78647;DHT22;67961;43.460;3.762;2023-04-24T02:16:54;12.80;70.10
78647;DHT22;67961;43.460;3.762;2023-04-24T02:19:20;12.80;70.30
78647;DHT22;67961;43.460;3.762;2023-04-24T02:21:45;12.80;69.30
78647;DHT22;67961;43.460;3.762;2023-04-24T02:24:11;12.80;69.20
78647;DHT22;67961;43.460;3.762;2023-04-24T02:26:37;12.80;69.50
78647;DHT22;67961;43.460;3.762;2023-04-24T02:29:02;12.90;69.40
78647;DHT22;67961;43.460;3.762;2023-04-24T02:31:28;12.90;69.40
78647;DHT22;67961;43.460;3.762;2023-04-24T02:33:53;12.90;68.90
78647;DHT22;67961;43.460;3.762;2023-04-24T02:36:19;13.00;69.00
78647;DHT22;67961;43.460;3.762;2023-04-24T02:38:45;13.00;68.70
78647;DHT22;67961;43.460;3.762;2023-04-24T02:41:10;13.00;68.50
78647;DHT22;67961;43.460;3.762;2023-04-24T02:43:36;13.00;68.00
78647;DHT22;67961;43.460;3.762;2023-04-24T02:46:02;13.10;67.80
78647;DHT22;67961;43.460;3.762;2023-04-24T02:48:28;13.10;68.20
78647;DHT22;67961;43.460;3.762;2023-04-24T02:50:54;13.20;67.50
78647;DHT22;67961;43.460;3.762;2023-04-24T02:53:20;13.30;67.60
78647;DHT22;67961;43.460;3.762;2023-04-24T02:55:45;13.30;68.60
78647;DHT22;67961;43.460;3.762;2023-04-24T02:58:11;13.30;68.20
78647;DHT22;67961;43.460;3.762;2023-04-24T03:00:38;13.30;67.90
78647;DHT22;67961;43.460;3.762;2023-04-24T03:03:05;13.30;67.60
78647;DHT22;67961;43.460;3.762;2023-04-24T03:05:31;13.30;67.30
78647;DHT22;67961;43.460;3.762;2023-04-24T03:07:57;13.30;67.60
78647;DHT22;67961;43.460;3.762;2023-04-24T03:10:22;13.30;67.00
78647;DHT22;67961;43.460;3.762;2023-04-24T03:12:48;13.30;67.50
78647;DHT22;67961;43.460;3.762;2023-04-24T03:15:14;13.20;67.40
78647;DHT22;67961;43.460;3.762;2023-04-24T03:17:40;13.20;67.20
78647;DHT22;67961;43.460;3.762;2023-04-24T03:20:06;13.10;68.00
78647;DHT22;67961;43.460;3.762;2023-04-24T03:22:33;13.10;67.50
78647;DHT22;67961;43.460;3.762;2023-04-24T03:24:59;13.10;67.60
78647;DHT22;67961;43.460;3.762;2023-04-24T03:27:25;13.10;67.80
78647;DHT22;67961;43.460;3.762;2023-04-24T03:29:50;13.20;67.90
78647;DHT22;67961;43.460;3.762;2023-04-24T03:32:21;13.10;68.20
78647;DHT22;67961;43.460;3.762;2023-04-24T03:34:50;13.10;68.00
78647;DHT22;67961;43.460;3.762;2023-04-24T03:37:16;13.00;67.80
78647;DHT22;67961;43.460;3.762;2023-04-24T03:39:42;13.00;68.70
78647;DHT22;67961;43.460;3.762;2023-04-24T03:42:10;13.00;68.70
78647;DHT22;67961;43.460;3.762;2023-04-24T03:44:37;13.00;68.20
78647;DHT22;67961;43.460;3.762;2023-04-24T03:47:02;13.00;68.00
78647;DHT22;67961;43.460;3.762;2023-04-24T03:49:28;13.10;68.20
78647;DHT22;67961;43.460;3.762;2023-04-24T03:51:53;13.10;68.70
78647;DHT22;67961;43.460;3.762;2023-04-24T03:54:19;13.00;69.00
78647;DHT22;67961;43.460;3.762;2023-04-24T03:56:45;13.00;68.30
78647;DHT22;67961;43.460;3.762;2023-04-24T03:59:11;13.00;68.70
78647;DHT22;67961;43.460;3.762;2023-04-24T04:01:37;13.00;69.00
78647;DHT22;67961;43.460;3.762;2023-04-24T04:04:03;12.90;69.20
78647;DHT22;67961;43.460;3.762;2023-04-24T04:06:29;12.90;69.20
78647;DHT22;67961;43.460;3.762;2023-04-24T04:08:56;12.80;68.90
78647;DHT22;67961;43.460;3.762;2023-04-24T04:11:22;12.80;69.20
78647;DHT22;67961;43.460;3.762;2023-04-24T04:13:48;12.80;69.40
78647;DHT22;67961;43.460;3.762;2023-04-24T04:16:14;12.70;69.90
78647;DHT22;67961;43.460;3.762;2023-04-24T04:18:42;12.70;69.20
78647;DHT22;67961;43.460;3.762;2023-04-24T04:21:08;12.60;69.50
78647;DHT22;67961;43.460;3.762;2023-04-24T04:23:33;12.60;69.40
78647;DHT22;67961;43.460;3.762;2023-04-24T04:25:59;12.60;69.50
78647;DHT22;67961;43.460;3.762;2023-04-24T04:28:25;12.50;69.50
78647;DHT22;67961;43.460;3.762;2023-04-24T04:30:51;12.50;69.60
78647;DHT22;67961;43.460;3.762;2023-04-24T04:33:21;12.50;69.70
78647;DHT22;67961;43.460;3.762;2023-04-24T04:35:47;12.50;69.90
78647;DHT22;67961;43.460;3.762;2023-04-24T04:38:18;12.50;70.20
78647;DHT22;67961;43.460;3.762;2023-04-24T04:40:44;12.50;70.50
78647;DHT22;67961;43.460;3.762;2023-04-24T04:43:10;12.50;70.90
78647;DHT22;67961;43.460;3.762;2023-04-24T04:45:37;12.50;71.20
78647;DHT22;67961;43.460;3.762;2023-04-24T04:48:04;12.50;71.50
78647;DHT22;67961;43.460;3.762;2023-04-24T04:50:30;12.50;71.40
78647;DHT22;67961;43.460;3.762;2023-04-24T04:52:55;12.40;71.20
78647;DHT22;67961;43.460;3.762;2023-04-24T04:55:21;12.30;71.20
78647;DHT22;67961;43.460;3.762;2023-04-24T04:57:47;12.30;71.20
78647;DHT22;67961;43.460;3.762;2023-04-24T05:00:13;12.30;71.00
78647;DHT22;67961;43.460;3.762;2023-04-24T05:02:39;12.30;70.80
78647;DHT22;67961;43.460;3.762;2023-04-24T05:05:06;12.40;70.60
78647;DHT22;67961;43.460;3.762;2023-04-24T05:07:32;12.40;70.90
78647;DHT22;67961;43.460;3.762;2023-04-24T05:09:58;12.30;71.10
78647;DHT22;67961;43.460;3.762;2023-04-24T05:12:24;12.30;71.10
78647;DHT22;67961;43.460;3.762;2023-04-24T05:14:49;12.30;71.10
78647;DHT22;67961;43.460;3.762;2023-04-24T05:17:15;12.40;71.20
78647;DHT22;67961;43.460;3.762;2023-04-24T05:19:41;12.40;71.50
78647;DHT22;67961;43.460;3.762;2023-04-24T05:22:07;12.40;70.80
78647;DHT22;67961;43.460;3.762;2023-04-24T05:24:34;12.40;71.00
78647;DHT22;67961;43.460;3.762;2023-04-24T05:26:59;12.30;71.40
78647;DHT22;67961;43.460;3.762;2023-04-24T05:29:25;12.50;71.50
78647;DHT22;67961;43.460;3.762;2023-04-24T05:31:51;12.50;71.30
78647;DHT22;67961;43.460;3.762;2023-04-24T05:34:17;12.70;70.90
78647;DHT22;67961;43.460;3.762;2023-04-24T05:36:43;12.70;71.20
78647;DHT22;67961;43.460;3.762;2023-04-24T05:39:11;12.70;71.70
78647;DHT22;67961;43.460;3.762;2023-04-24T05:41:37;12.70;72.10
78647;DHT22;67961;43.460;3.762;2023-04-24T05:44:03;12.80;72.30
78647;DHT22;67961;43.460;3.762;2023-04-24T05:46:28;12.90;71.70
78647;DHT22;67961;43.460;3.762;2023-04-24T05:48:54;13.00;71.50
78647;DHT22;67961;43.460;3.762;2023-04-24T05:51:20;13.00;71.70
78647;DHT22;67961;43.460;3.762;2023-04-24T05:53:45;13.10;71.80
78647;DHT22;67961;43.460;3.762;2023-04-24T05:56:11;13.10;71.50
78647;DHT22;67961;43.460;3.762;2023-04-24T05:58:37;13.20;71.50
78647;DHT22;67961;43.460;3.762;2023-04-24T06:01:03;13.30;71.40
78647;DHT22;67961;43.460;3.762;2023-04-24T06:03:29;13.40;71.10
78647;DHT22;67961;43.460;3.762;2023-04-24T06:05:54;13.50;70.50
78647;DHT22;67961;43.460;3.762;2023-04-24T06:08:20;13.50;70.60
78647;DHT22;67961;43.460;3.762;2023-04-24T06:10:45;13.50;70.70
78647;DHT22;67961;43.460;3.762;2023-04-24T06:13:11;13.60;70.70
78647;DHT22;67961;43.460;3.762;2023-04-24T06:15:37;13.60;70.70
78647;DHT22;67961;43.460;3.762;2023-04-24T06:18:03;13.60;71.00
78647;DHT22;67961;43.460;3.762;2023-04-24T06:20:29;13.70;71.00
78647;DHT22;67961;43.460;3.762;2023-04-24T06:22:55;13.70;70.60
78647;DHT22;67961;43.460;3.762;2023-04-24T06:25:21;13.80;70.80
78647;DHT22;67961;43.460;3.762;2023-04-24T06:27:46;13.80;70.50
78647;DHT22;67961;43.460;3.762;2023-04-24T06:30:12;13.80;70.30
78647;DHT22;67961;43.460;3.762;2023-04-24T06:32:38;13.70;70.70
78647;DHT22;67961;43.460;3.762;2023-04-24T06:35:04;13.90;70.60
78647;DHT22;67961;43.460;3.762;2023-04-24T06:37:29;14.00;70.50
78647;DHT22;67961;43.460;3.762;2023-04-24T06:39:55;14.10;70.20
78647;DHT22;67961;43.460;3.762;2023-04-24T06:42:21;14.30;69.70
78647;DHT22;67961;43.460;3.762;2023-04-24T06:44:47;14.50;69.10
78647;DHT22;67961;43.460;3.762;2023-04-24T06:47:13;14.60;69.50
78647;DHT22;67961;43.460;3.762;2023-04-24T06:49:41;14.50;68.70
78647;DHT22;67961;43.460;3.762;2023-04-24T06:52:07;14.40;69.00
78647;DHT22;67961;43.460;3.762;2023-04-24T06:54:33;14.40;69.00
78647;DHT22;67961;43.460;3.762;2023-04-24T06:57:00;14.30;69.00
78647;DHT22;67961;43.460;3.762;2023-04-24T06:59:29;14.30;68.10
78647;DHT22;67961;43.460;3.762;2023-04-24T07:01:55;14.30;68.20
78647;DHT22;67961;43.460;3.762;2023-04-24T07:04:21;14.50;67.90
78647;DHT22;67961;43.460;3.762;2023-04-24T07:06:47;14.70;66.70
78647;DHT22;67961;43.460;3.762;2023-04-24T07:09:14;15.10;65.20
78647;DHT22;67961;43.460;3.762;2023-04-24T07:11:41;15.20;65.80
78647;DHT22;67961;43.460;3.762;2023-04-24T07:14:07;15.10;65.00
78647;DHT22;67961;43.460;3.762;2023-04-24T07:16:34;15.00;65.80
78647;DHT22;67961;43.460;3.762;2023-04-24T07:19:00;15.00;66.60
78647;DHT22;67961;43.460;3.762;2023-04-24T07:21:25;15.20;66.70
78647;DHT22;67961;43.460;3.762;2023-04-24T07:23:52;15.30;66.20
78647;DHT22;67961;43.460;3.762;2023-04-24T07:26:19;15.50;66.30
78647;DHT22;67961;43.460;3.762;2023-04-24T07:28:45;15.60;65.80
78647;DHT22;67961;43.460;3.762;2023-04-24T07:31:11;15.60;65.70
78647;DHT22;67961;43.460;3.762;2023-04-24T07:33:37;15.70;64.60
78647;DHT22;67961;43.460;3.762;2023-04-24T07:36:03;15.80;64.10
78647;DHT22;67961;43.460;3.762;2023-04-24T07:38:32;15.80;63.00
78647;DHT22;67961;43.460;3.762;2023-04-24T07:40:58;15.90;63.30
78647;DHT22;67961;43.460;3.762;2023-04-24T07:43:23;15.90;63.80
78647;DHT22;67961;43.460;3.762;2023-04-24T07:45:52;15.80;63.60
78647;DHT22;67961;43.460;3.762;2023-04-24T07:48:18;15.60;62.60
78647;DHT22;67961;43.460;3.762;2023-04-24T07:50:44;15.60;62.80
78647;DHT22;67961;43.460;3.762;2023-04-24T07:53:10;15.70;62.50
78647;DHT22;67961;43.460;3.762;2023-04-24T07:55:36;15.80;62.40
78647;DHT22;67961;43.460;3.762;2023-04-24T07:58:02;16.00;61.70
78647;DHT22;67961;43.460;3.762;2023-04-24T08:00:27;16.20;62.00
78647;DHT22;67961;43.460;3.762;2023-04-24T08:02:53;16.40;62.10
78647;DHT22;67961;43.460;3.762;2023-04-24T08:05:19;16.70;60.20
78647;DHT22;67961;43.460;3.762;2023-04-24T08:07:46;16.70;60.00
78647;DHT22;67961;43.460;3.762;2023-04-24T08:10:14;16.60;60.60
78647;DHT22;67961;43.460;3.762;2023-04-24T08:12:40;16.50;61.00
78647;DHT22;67961;43.460;3.762;2023-04-24T08:15:06;16.50;61.50
78647;DHT22;67961;43.460;3.762;2023-04-24T08:17:33;16.50;61.40
78647;DHT22;67961;43.460;3.762;2023-04-24T08:19:59;16.50;61.20
78647;DHT22;67961;43.460;3.762;2023-04-24T08:22:27;16.40;60.70
78647;DHT22;67961;43.460;3.762;2023-04-24T08:24:53;16.30;61.40
78647;DHT22;67961;43.460;3.762;2023-04-24T08:27:19;16.20;61.70
78647;DHT22;67961;43.460;3.762;2023-04-24T08:29:45;16.30;62.70
78647;DHT22;67961;43.460;3.762;2023-04-24T08:32:11;16.40;62.60
78647;DHT22;67961;43.460;3.762;2023-04-24T08:34:36;16.70;62.30
78647;DHT22;67961;43.460;3.762;2023-04-24T08:37:02;16.70;60.70
78647;DHT22;67961;43.460;3.762;2023-04-24T08:39:28;16.60;62.60
78647;DHT22;67961;43.460;3.762;2023-04-24T08:41:55;16.60;62.00
78647;DHT22;67961;43.460;3.762;2023-04-24T08:44:21;16.60;62.50
78647;DHT22;67961;43.460;3.762;2023-04-24T08:46:48;16.70;62.60
78647;DHT22;67961;43.460;3.762;2023-04-24T08:49:15;17.30;62.60
78647;DHT22;67961;43.460;3.762;2023-04-24T08:51:42;17.30;61.90
78647;DHT22;67961;43.460;3.762;2023-04-24T08:54:08;17.20;62.40
78647;DHT22;67961;43.460;3.762;2023-04-24T08:56:36;17.50;61.50
78647;DHT22;67961;43.460;3.762;2023-04-24T08:59:08;17.60;61.40
78647;DHT22;67961;43.460;3.762;2023-04-24T09:01:34;17.60;60.70
78647;DHT22;67961;43.460;3.762;2023-04-24T09:04:03;17.80;60.30
78647;DHT22;67961;43.460;3.762;2023-04-24T09:06:30;17.80;59.20
78647;DHT22;67961;43.460;3.762;2023-04-24T09:08:57;17.80;60.40
78647;DHT22;67961;43.460;3.762;2023-04-24T09:11:25;18.40;59.10
78647;DHT22;67961;43.460;3.762;2023-04-24T09:13:51;19.10;58.90
78647;DHT22;67961;43.460;3.762;2023-04-24T09:16:17;19.60;57.70
78647;DHT22;67961;43.460;3.762;2023-04-24T09:18:43;20.10;56.70
78647;DHT22;67961;43.460;3.762;2023-04-24T09:21:09;20.20;56.00
78647;DHT22;67961;43.460;3.762;2023-04-24T09:23:35;20.30;54.70
78647;DHT22;67961;43.460;3.762;2023-04-24T09:26:02;20.60;54.40
78647;DHT22;67961;43.460;3.762;2023-04-24T09:28:37;20.60;52.30
78647;DHT22;67961;43.460;3.762;2023-04-24T09:31:07;20.90;53.70
78647;DHT22;67961;43.460;3.762;2023-04-24T09:33:33;21.10;51.90
78647;DHT22;67961;43.460;3.762;2023-04-24T09:35:59;21.30;52.00
78647;DHT22;67961;43.460;3.762;2023-04-24T09:38:38;21.50;51.80
78647;DHT22;67961;43.460;3.762;2023-04-24T09:41:08;21.50;53.20
78647;DHT22;67961;43.460;3.762;2023-04-24T09:43:38;21.30;53.10
78647;DHT22;67961;43.460;3.762;2023-04-24T09:46:06;21.30;53.00
78647;DHT22;67961;43.460;3.762;2023-04-24T09:48:32;21.40;50.40
78647;DHT22;67961;43.460;3.762;2023-04-24T09:51:00;21.50;51.70
78647;DHT22;67961;43.460;3.762;2023-04-24T09:53:27;21.50;52.20
78647;DHT22;67961;43.460;3.762;2023-04-24T09:55:53;21.50;51.70
78647;DHT22;67961;43.460;3.762;2023-04-24T09:58:25;21.60;50.80
78647;DHT22;67961;43.460;3.762;2023-04-24T10:00:55;21.50;51.10
78647;DHT22;67961;43.460;3.762;2023-04-24T10:03:24;21.50;50.70
78647;DHT22;67961;43.460;3.762;2023-04-24T10:05:54;21.50;48.00
78647;DHT22;67961;43.460;3.762;2023-04-24T10:08:23;21.10;49.80
78647;DHT22;67961;43.460;3.762;2023-04-24T10:10:49;21.00;51.00
78647;DHT22;67961;43.460;3.762;2023-04-24T10:13:15;21.10;49.70
78647;DHT22;67961;43.460;3.762;2023-04-24T10:15:42;20.90;47.80
78647;DHT22;67961;43.460;3.762;2023-04-24T10:18:09;20.90;48.30
78647;DHT22;67961;43.460;3.762;2023-04-24T10:20:40;21.00;48.20
78647;DHT22;67961;43.460;3.762;2023-04-24T10:23:06;21.00;47.90
78647;DHT22;67961;43.460;3.762;2023-04-24T10:25:34;21.10;48.10
78647;DHT22;67961;43.460;3.762;2023-04-24T10:28:01;21.10;46.80
78647;DHT22;67961;43.460;3.762;2023-04-24T10:30:31;21.50;47.60
78647;DHT22;67961;43.460;3.762;2023-04-24T10:33:04;21.70;47.60
78647;DHT22;67961;43.460;3.762;2023-04-24T10:35:42;21.40;44.80
78647;DHT22;67961;43.460;3.762;2023-04-24T10:38:12;21.30;46.70
78647;DHT22;67961;43.460;3.762;2023-04-24T10:40:38;21.70;50.00
78647;DHT22;67961;43.460;3.762;2023-04-24T10:43:06;21.60;45.50
78647;DHT22;67961;43.460;3.762;2023-04-24T10:45:34;21.50;45.60
78647;DHT22;67961;43.460;3.762;2023-04-24T10:48:06;21.40;47.40
78647;DHT22;67961;43.460;3.762;2023-04-24T10:50:45;21.40;48.00
78647;DHT22;67961;43.460;3.762;2023-04-24T10:53:19;21.50;47.30
78647;DHT22;67961;43.460;3.762;2023-04-24T10:55:52;21.70;47.40
78647;DHT22;67961;43.460;3.762;2023-04-24T10:58:23;22.10;46.10
78647;DHT22;67961;43.460;3.762;2023-04-24T11:01:00;22.20;45.40
78647;DHT22;67961;43.460;3.762;2023-04-24T11:03:28;22.10;45.70
78647;DHT22;67961;43.460;3.762;2023-04-24T11:06:08;22.00;44.40
78647;DHT22;67961;43.460;3.762;2023-04-24T11:08:43;21.90;44.80
78647;DHT22;67961;43.460;3.762;2023-04-24T11:11:11;21.70;45.40
78647;DHT22;67961;43.460;3.762;2023-04-24T11:27:05;21.90;44.90
78647;DHT22;67961;43.460;3.762;2023-04-24T11:29:43;22.10;45.50
78647;DHT22;67961;43.460;3.762;2023-04-24T11:34:54;22.60;45.30
78647;DHT22;67961;43.460;3.762;2023-04-24T11:37:20;22.50;45.10
78647;DHT22;67961;43.460;3.762;2023-04-24T11:39:45;22.50;45.00
78647;DHT22;67961;43.460;3.762;2023-04-24T11:42:15;22.60;46.00
78647;DHT22;67961;43.460;3.762;2023-04-24T11:44:42;22.70;45.60
78647;DHT22;67961;43.460;3.762;2023-04-24T11:47:08;22.50;46.10
78647;DHT22;67961;43.460;3.762;2023-04-24T11:49:37;22.50;46.30
78647;DHT22;67961;43.460;3.762;2023-04-24T11:52:03;22.10;46.50
78647;DHT22;67961;43.460;3.762;2023-04-24T11:54:29;21.90;46.20
78647;DHT22;67961;43.460;3.762;2023-04-24T11:56:56;21.80;45.40
78647;DHT22;67961;43.460;3.762;2023-04-24T11:59:22;21.50;45.70
78647;DHT22;67961;43.460;3.762;2023-04-24T12:01:48;21.50;45.40
78647;DHT22;67961;43.460;3.762;2023-04-24T12:04:15;21.40;46.90
78647;DHT22;67961;43.460;3.762;2023-04-24T12:07:03;21.30;45.40
78647;DHT22;67961;43.460;3.762;2023-04-24T12:09:29;21.10;46.10
78647;DHT22;67961;43.460;3.762;2023-04-24T12:12:06;21.00;46.50
78647;DHT22;67961;43.460;3.762;2023-04-24T12:14:32;20.80;47.30
78647;DHT22;67961;43.460;3.762;2023-04-24T12:16:57;20.80;47.00
78647;DHT22;67961;43.460;3.762;2023-04-24T12:19:23;20.60;47.30
78647;DHT22;67961;43.460;3.762;2023-04-24T12:22:03;20.50;47.70
78647;DHT22;67961;43.460;3.762;2023-04-24T12:24:30;20.30;47.50
78647;DHT22;67961;43.460;3.762;2023-04-24T12:26:57;20.30;47.60
78647;DHT22;67961;43.460;3.762;2023-04-24T12:29:24;20.10;46.80
78647;DHT22;67961;43.460;3.762;2023-04-24T12:31:53;20.00;47.10
78647;DHT22;67961;43.460;3.762;2023-04-24T12:34:24;20.00;47.00
78647;DHT22;67961;43.460;3.762;2023-04-24T12:36:51;19.90;46.90
78647;DHT22;67961;43.460;3.762;2023-04-24T12:39:20;19.90;47.30
78647;DHT22;67961;43.460;3.762;2023-04-24T12:41:55;19.80;46.80
78647;DHT22;67961;43.460;3.762;2023-04-24T12:44:32;19.70;47.20
78647;DHT22;67961;43.460;3.762;2023-04-24T12:47:00;19.70;47.80
78647;DHT22;67961;43.460;3.762;2023-04-24T12:49:26;19.50;48.10
78647;DHT22;67961;43.460;3.762;2023-04-24T12:51:51;19.50;47.70
78647;DHT22;67961;43.460;3.762;2023-04-24T12:54:17;19.30;47.80
78647;DHT22;67961;43.460;3.762;2023-04-24T12:56:43;19.20;48.20
78647;DHT22;67961;43.460;3.762;2023-04-24T12:59:08;19.20;48.20
78647;DHT22;67961;43.460;3.762;2023-04-24T13:01:34;19.20;48.50
78647;DHT22;67961;43.460;3.762;2023-04-24T13:04:00;19.10;48.70
78647;DHT22;67961;43.460;3.762;2023-04-24T13:06:25;19.10;48.90
78647;DHT22;67961;43.460;3.762;2023-04-24T13:08:51;19.10;48.30
78647;DHT22;67961;43.460;3.762;2023-04-24T13:11:17;19.10;48.40
78647;DHT22;67961;43.460;3.762;2023-04-24T13:13:43;19.20;48.20
78647;DHT22;67961;43.460;3.762;2023-04-24T13:16:09;19.20;48.00
78647;DHT22;67961;43.460;3.762;2023-04-24T13:18:35;19.30;48.10
78647;DHT22;67961;43.460;3.762;2023-04-24T13:21:01;19.30;48.00
78647;DHT22;67961;43.460;3.762;2023-04-24T13:23:26;19.30;48.50
78647;DHT22;67961;43.460;3.762;2023-04-24T13:25:53;19.40;48.40
78647;DHT22;67961;43.460;3.762;2023-04-24T13:28:20;19.40;48.00
78647;DHT22;67961;43.460;3.762;2023-04-24T13:30:46;19.40;48.90
78647;DHT22;67961;43.460;3.762;2023-04-24T13:33:13;19.40;47.90
78647;DHT22;67961;43.460;3.762;2023-04-24T13:35:39;19.30;48.30
78647;DHT22;67961;43.460;3.762;2023-04-24T13:38:05;19.30;48.70
78647;DHT22;67961;43.460;3.762;2023-04-24T13:40:32;19.30;48.80
78647;DHT22;67961;43.460;3.762;2023-04-24T13:42:58;19.30;47.90
78647;DHT22;67961;43.460;3.762;2023-04-24T13:45:24;19.20;48.30
78647;DHT22;67961;43.460;3.762;2023-04-24T13:47:49;19.30;48.10
78647;DHT22;67961;43.460;3.762;2023-04-24T13:50:15;19.20;48.10
78647;DHT22;67961;43.460;3.762;2023-04-24T13:52:41;19.30;48.70
78647;DHT22;67961;43.460;3.762;2023-04-24T13:55:07;19.40;48.40
78647;DHT22;67961;43.460;3.762;2023-04-24T13:57:33;19.40;48.40
78647;DHT22;67961;43.460;3.762;2023-04-24T13:59:58;19.40;48.20
78647;DHT22;67961;43.460;3.762;2023-04-24T14:02:29;19.40;48.30
78647;DHT22;67961;43.460;3.762;2023-04-24T14:04:55;19.40;47.90
78647;DHT22;67961;43.460;3.762;2023-04-24T14:07:21;19.40;48.00
78647;DHT22;67961;43.460;3.762;2023-04-24T14:09:46;19.50;48.10
78647;DHT22;67961;43.460;3.762;2023-04-24T14:12:12;19.50;47.90
78647;DHT22;67961;43.460;3.762;2023-04-24T14:14:39;19.50;47.40
78647;DHT22;67961;43.460;3.762;2023-04-24T14:17:05;19.40;48.20
78647;DHT22;67961;43.460;3.762;2023-04-24T14:19:31;19.50;48.00
78647;DHT22;67961;43.460;3.762;2023-04-24T14:21:57;19.50;47.80
78647;DHT22;67961;43.460;3.762;2023-04-24T14:24:23;19.50;48.20
78647;DHT22;67961;43.460;3.762;2023-04-24T14:26:49;19.50;47.70
78647;DHT22;67961;43.460;3.762;2023-04-24T14:29:15;19.50;47.70
78647;DHT22;67961;43.460;3.762;2023-04-24T14:31:42;19.50;47.70
78647;DHT22;67961;43.460;3.762;2023-04-24T14:34:07;19.50;47.20
78647;DHT22;67961;43.460;3.762;2023-04-24T14:36:33;19.60;47.00
78647;DHT22;67961;43.460;3.762;2023-04-24T14:38:59;19.60;46.80
78647;DHT22;67961;43.460;3.762;2023-04-24T14:41:25;19.70;46.80
78647;DHT22;67961;43.460;3.762;2023-04-24T14:43:50;19.70;47.20
78647;DHT22;67961;43.460;3.762;2023-04-24T14:46:16;19.70;46.60
78647;DHT22;67961;43.460;3.762;2023-04-24T14:48:41;19.70;46.80
78647;DHT22;67961;43.460;3.762;2023-04-24T14:51:07;19.70;47.30
78647;DHT22;67961;43.460;3.762;2023-04-24T14:53:32;19.70;46.70
78647;DHT22;67961;43.460;3.762;2023-04-24T14:55:58;19.70;47.10
78647;DHT22;67961;43.460;3.762;2023-04-24T14:58:24;19.70;47.00
78647;DHT22;67961;43.460;3.762;2023-04-24T15:00:50;19.70;46.60
78647;DHT22;67961;43.460;3.762;2023-04-24T15:03:18;19.80;46.80
78647;DHT22;67961;43.460;3.762;2023-04-24T15:05:44;19.90;46.50
78647;DHT22;67961;43.460;3.762;2023-04-24T15:08:10;20.00;46.30
78647;DHT22;67961;43.460;3.762;2023-04-24T15:10:35;20.00;45.70
78647;DHT22;67961;43.460;3.762;2023-04-24T15:13:01;20.10;45.70
78647;DHT22;67961;43.460;3.762;2023-04-24T15:15:27;20.10;45.90
78647;DHT22;67961;43.460;3.762;2023-04-24T15:17:52;20.10;45.40
78647;DHT22;67961;43.460;3.762;2023-04-24T15:20:18;20.10;45.70
78647;DHT22;67961;43.460;3.762;2023-04-24T15:22:44;20.10;45.70
78647;DHT22;67961;43.460;3.762;2023-04-24T15:25:10;20.20;45.90
78647;DHT22;67961;43.460;3.762;2023-04-24T15:27:45;20.20;45.50
78647;DHT22;67961;43.460;3.762;2023-04-24T15:30:12;20.10;45.60
78647;DHT22;67961;43.460;3.762;2023-04-24T15:32:38;20.10;45.00
78647;DHT22;67961;43.460;3.762;2023-04-24T15:35:04;20.10;44.90
78647;DHT22;67961;43.460;3.762;2023-04-24T15:37:30;20.00;45.50
78647;DHT22;67961;43.460;3.762;2023-04-24T15:39:56;20.00;45.50
78647;DHT22;67961;43.460;3.762;2023-04-24T15:42:21;19.90;45.60